createdAt,value
2019-04-01T00:00:25.047Z,4
2019-04-01T00:01:25.182Z,4
2019-04-01T00:02:25.318Z,4
2019-04-01T00:03:25.440Z,4
2019-04-01T00:04:26.535Z,4
2019-04-01T00:05:25.550Z,4
2019-04-01T00:06:25.693Z,4
2019-04-01T00:07:25.853Z,4
2019-04-01T00:08:26.003Z,4
2019-04-01T00:09:26.124Z,4
2019-04-01T00:10:26.275Z,4
2019-04-01T00:11:26.436Z,4
2019-04-01T00:12:26.572Z,4
2019-04-01T00:13:26.706Z,4
2019-04-01T00:14:26.845Z,4
2019-04-01T00:15:26.989Z,4
2019-04-01T00:16:27.097Z,4
2019-04-01T00:17:27.262Z,4
2019-04-01T00:18:27.391Z,4
2019-04-01T00:19:27.523Z,4
2019-04-01T00:20:27.648Z,4
2019-04-01T00:21:27.775Z,3
2019-04-01T00:22:27.905Z,4
2019-04-01T00:23:28.031Z,4
2019-04-01T00:24:28.151Z,4
2019-04-01T00:25:28.297Z,4
2019-04-01T00:26:28.502Z,4
2019-04-01T00:27:28.623Z,4
2019-04-01T00:28:28.754Z,4
2019-04-01T00:29:28.909Z,4
2019-04-01T00:30:29.051Z,4
2019-04-01T00:31:29.193Z,4
2019-04-01T00:32:29.333Z,4
2019-04-01T00:33:29.484Z,4
2019-04-01T00:34:29.616Z,4
2019-04-01T00:35:29.739Z,4
2019-04-01T00:36:29.861Z,4
2019-04-01T00:37:29.991Z,4
2019-04-01T00:38:30.123Z,4
2019-04-01T00:39:30.093Z,4
2019-04-01T00:40:30.194Z,4
2019-04-01T00:41:30.330Z,4
2019-04-01T00:42:30.450Z,4
2019-04-01T00:43:30.581Z,4
2019-04-01T00:44:30.739Z,4
2019-04-01T00:45:31.835Z,4
2019-04-01T00:46:30.867Z,4
2019-04-01T00:47:30.982Z,4
2019-04-01T00:48:31.131Z,4
2019-04-01T00:49:31.260Z,4
2019-04-01T00:50:31.397Z,4
2019-04-01T00:51:31.512Z,4
2019-04-01T00:52:31.632Z,4
2019-04-01T00:53:31.730Z,4
2019-04-01T00:54:31.855Z,4
2019-04-01T00:55:31.972Z,4
2019-04-01T00:56:32.109Z,4
2019-04-01T00:57:32.199Z,4
2019-04-01T00:58:32.354Z,4
2019-04-01T00:59:32.502Z,4
2019-04-01T01:00:32.618Z,4
2019-04-01T01:01:32.756Z,4
2019-04-01T01:02:32.867Z,4
2019-04-01T01:03:33.043Z,4
2019-04-01T01:04:33.164Z,4
2019-04-01T01:05:33.298Z,4
2019-04-01T01:06:33.404Z,4
2019-04-01T01:07:33.541Z,4
2019-04-01T01:08:33.690Z,4
2019-04-01T01:09:33.846Z,4
2019-04-01T01:10:33.967Z,4
2019-04-01T01:11:34.081Z,4
2019-04-01T01:12:34.186Z,4
2019-04-01T01:13:34.328Z,4
2019-04-01T01:14:34.496Z,4
2019-04-01T01:15:34.623Z,4
2019-04-01T01:16:34.767Z,4
2019-04-01T01:17:34.900Z,4
2019-04-01T01:18:35.032Z,4
2019-04-01T01:20:39.169Z,4
2019-04-01T01:20:52.919Z,4
2019-04-01T01:21:53.075Z,4
2019-04-01T01:22:53.200Z,4
2019-04-01T01:23:53.363Z,4
2019-04-01T01:24:53.518Z,4
2019-04-01T01:25:53.649Z,4
2019-04-01T01:26:53.789Z,4
2019-04-01T01:27:53.933Z,4
2019-04-01T01:28:54.047Z,4
2019-04-01T01:29:54.155Z,3
2019-04-01T01:30:54.291Z,4
2019-04-01T01:31:54.432Z,4
2019-04-01T01:32:54.562Z,4
2019-04-01T01:33:54.691Z,4
2019-04-01T01:34:54.836Z,4
2019-04-01T01:35:54.962Z,4
2019-04-01T01:36:55.094Z,4
2019-04-01T01:38:03.318Z,4
2019-04-01T01:38:55.333Z,4
2019-04-01T01:39:55.485Z,4
2019-04-01T01:40:55.632Z,4
2019-04-01T01:41:55.749Z,4
2019-04-01T01:42:55.917Z,3
2019-04-01T01:43:56.053Z,4
2019-04-01T01:44:56.180Z,4
2019-04-01T01:45:56.312Z,4
2019-04-01T01:46:56.440Z,4
2019-04-01T01:47:56.467Z,4
2019-04-01T01:48:56.605Z,4
2019-04-01T01:49:56.740Z,4
2019-04-01T01:50:57.867Z,4
2019-04-01T01:51:56.879Z,4
2019-04-01T01:52:57.043Z,4
2019-04-01T01:53:57.171Z,3
2019-04-01T01:54:57.308Z,4
2019-04-01T01:55:57.440Z,4
2019-04-01T01:56:57.565Z,4
2019-04-01T01:57:57.707Z,4
2019-04-01T01:58:57.875Z,4
2019-04-01T01:59:58.047Z,4
2019-04-01T02:00:58.176Z,4
2019-04-01T02:01:58.325Z,4
2019-04-01T02:02:58.450Z,4
2019-04-01T02:03:58.608Z,4
2019-04-01T02:04:58.746Z,4
2019-04-01T02:05:58.893Z,4
2019-04-01T02:06:59.045Z,4
2019-04-01T02:07:59.209Z,4
2019-04-01T02:08:59.353Z,4
2019-04-01T02:09:59.537Z,4
2019-04-01T02:10:59.688Z,4
2019-04-01T02:11:59.804Z,4
2019-04-01T02:12:59.945Z,4
2019-04-01T02:14:00.061Z,4
2019-04-01T02:15:00.374Z,4
2019-04-01T02:16:00.327Z,4
2019-04-01T02:17:00.502Z,4
2019-04-01T02:18:00.644Z,4
2019-04-01T02:19:00.785Z,4
2019-04-01T02:20:00.936Z,4
2019-04-01T02:21:01.078Z,4
2019-04-01T02:22:01.258Z,3
2019-04-01T02:23:01.374Z,4
2019-04-01T02:24:01.508Z,4
2019-04-01T02:25:02.656Z,4
2019-04-01T02:26:01.698Z,4
2019-04-01T02:27:01.835Z,4
2019-04-01T02:28:01.982Z,4
2019-04-01T02:29:02.117Z,4
2019-04-01T02:30:02.272Z,4
2019-04-01T02:31:02.420Z,4
2019-04-01T02:32:02.576Z,4
2019-04-01T02:33:02.750Z,4
2019-04-01T02:34:02.709Z,4
2019-04-01T02:35:02.863Z,4
2019-04-01T02:36:03.008Z,4
2019-04-01T02:37:03.157Z,4
2019-04-01T02:38:03.464Z,4
2019-04-01T02:39:03.431Z,4
2019-04-01T02:40:03.574Z,4
2019-04-01T02:41:03.736Z,4
2019-04-01T02:42:03.808Z,4
2019-04-01T02:43:03.942Z,4
2019-04-01T02:44:04.111Z,4
2019-04-01T02:45:04.270Z,4
2019-04-01T02:46:04.229Z,4
2019-04-01T02:47:04.404Z,4
2019-04-01T02:48:04.561Z,4
2019-04-01T02:49:04.682Z,4
2019-04-01T02:50:04.817Z,4
2019-04-01T02:51:04.958Z,4
2019-04-01T02:52:05.067Z,4
2019-04-01T02:53:05.189Z,4
2019-04-01T02:54:05.288Z,4
2019-04-01T02:55:06.766Z,4
2019-04-01T02:56:05.585Z,4
2019-04-01T02:57:05.727Z,4
2019-04-01T02:58:05.864Z,4
2019-04-01T02:59:06.028Z,4
2019-04-01T03:00:06.232Z,4
2019-04-01T03:01:06.313Z,4
2019-04-01T03:02:06.447Z,4
2019-04-01T03:03:06.578Z,4
2019-04-01T03:04:06.684Z,4
2019-04-01T03:05:06.909Z,4
2019-04-01T03:06:08.039Z,4
2019-04-01T03:07:07.070Z,4
2019-04-01T03:08:07.223Z,4
2019-04-01T03:09:07.346Z,4
2019-04-01T03:10:07.507Z,4
2019-04-01T03:11:10.142Z,4
2019-04-01T03:12:07.769Z,4
2019-04-01T03:13:07.911Z,4
2019-04-01T03:14:08.031Z,4
2019-04-01T03:15:08.165Z,4
2019-04-01T03:16:08.325Z,4
2019-04-01T03:17:08.471Z,3
2019-04-01T03:18:08.464Z,4
2019-04-01T03:19:08.602Z,4
2019-04-01T03:20:08.752Z,4
2019-04-01T03:21:08.899Z,3
2019-04-01T03:22:09.038Z,4
2019-04-01T03:23:09.163Z,4
2019-04-01T03:24:09.286Z,4
2019-04-01T03:25:09.454Z,4
2019-04-01T03:26:09.604Z,4
2019-04-01T03:27:09.717Z,4
2019-04-01T03:28:10.857Z,4
2019-04-01T03:29:09.917Z,4
2019-04-01T03:30:10.054Z,4
2019-04-01T03:31:10.151Z,4
2019-04-01T03:32:10.326Z,4
2019-04-01T03:33:10.475Z,4
2019-04-01T03:34:10.606Z,4
2019-04-01T03:35:10.761Z,4
2019-04-01T03:36:11.059Z,4
2019-04-01T03:37:11.089Z,4
2019-04-01T03:38:11.050Z,4
2019-04-01T03:39:11.175Z,4
2019-04-01T03:40:11.325Z,4
2019-04-01T03:41:11.566Z,4
2019-04-01T03:42:11.627Z,4
2019-04-01T03:43:11.764Z,4
2019-04-01T03:44:11.954Z,4
2019-04-01T03:45:12.087Z,4
2019-04-01T03:46:12.225Z,4
2019-04-01T03:47:12.380Z,4
2019-04-01T03:48:12.554Z,4
2019-04-01T03:49:12.797Z,4
2019-04-01T03:50:12.705Z,4
2019-04-01T03:51:12.663Z,4
2019-04-01T03:52:12.772Z,4
2019-04-01T03:53:12.932Z,4
2019-04-01T03:54:12.940Z,4
2019-04-01T03:55:13.076Z,4
2019-04-01T03:56:13.204Z,4
2019-04-01T03:57:13.354Z,4
2019-04-01T03:58:13.514Z,4
2019-04-01T03:59:14.345Z,4
2019-04-01T04:00:13.771Z,4
2019-04-01T04:01:13.895Z,4
2019-04-01T04:02:14.019Z,4
2019-04-01T04:03:14.154Z,4
2019-04-01T04:04:14.312Z,4
2019-04-01T04:05:14.466Z,3
2019-04-01T04:06:14.605Z,4
2019-04-01T04:07:14.760Z,4
2019-04-01T04:08:14.888Z,4
2019-04-01T04:09:15.045Z,4
2019-04-01T04:10:15.206Z,4
2019-04-01T04:11:15.323Z,4
2019-04-01T04:12:15.460Z,4
2019-04-01T04:13:15.597Z,4
2019-04-01T04:14:15.752Z,4
2019-04-01T04:15:15.918Z,4
2019-04-01T04:16:16.061Z,4
2019-04-01T04:17:16.209Z,4
2019-04-01T04:18:16.341Z,4
2019-04-01T04:19:16.457Z,4
2019-04-01T04:20:16.613Z,4
2019-04-01T04:21:16.760Z,4
2019-04-01T04:22:17.853Z,4
2019-04-01T04:23:16.913Z,4
2019-04-01T04:24:17.051Z,4
2019-04-01T04:25:17.206Z,4
2019-04-01T04:26:17.171Z,4
2019-04-01T04:27:17.317Z,4
2019-04-01T04:28:17.469Z,4
2019-04-01T04:29:17.470Z,4
2019-04-01T04:30:17.634Z,4
2019-04-01T04:31:17.766Z,4
2019-04-01T04:32:18.883Z,4
2019-04-01T04:33:17.933Z,4
2019-04-01T04:34:18.085Z,4
2019-04-01T04:35:18.219Z,4
2019-04-01T04:36:18.377Z,3
2019-04-01T04:37:18.551Z,3
2019-04-01T04:38:18.679Z,3
2019-04-01T04:39:18.812Z,3
2019-04-01T04:40:18.949Z,4
2019-04-01T04:41:19.115Z,4
2019-04-01T04:42:19.086Z,4
2019-04-01T04:43:19.255Z,4
2019-04-01T04:44:19.223Z,4
2019-04-01T04:45:19.382Z,4
2019-04-01T04:46:21.163Z,5
2019-04-01T04:47:19.645Z,4
2019-04-01T04:48:19.805Z,5
2019-04-01T04:49:19.971Z,5
2019-04-01T04:50:20.114Z,5
2019-04-01T04:51:20.254Z,5
2019-04-01T04:52:20.367Z,6
2019-04-01T04:53:20.500Z,7
2019-04-01T04:54:20.626Z,7
2019-04-01T04:55:20.789Z,8
2019-04-01T04:56:20.939Z,9
2019-04-01T04:57:20.936Z,11
2019-04-01T04:58:21.108Z,12
2019-04-01T04:59:21.105Z,13
2019-04-01T05:00:21.127Z,15
2019-04-01T05:01:21.143Z,17
2019-04-01T05:02:24.385Z,19
2019-04-01T05:03:21.141Z,22
2019-04-01T05:04:21.141Z,24
2019-04-01T05:05:21.140Z,27
2019-04-01T05:06:21.146Z,30
2019-04-01T05:07:21.151Z,34
2019-04-01T05:08:21.153Z,37
2019-04-01T05:09:21.342Z,42
2019-04-01T05:10:21.349Z,47
2019-04-01T05:11:21.362Z,52
2019-04-01T05:12:21.379Z,56
2019-04-01T05:13:21.386Z,62
2019-04-01T05:14:21.360Z,68
2019-04-01T05:15:22.533Z,74
2019-04-01T05:16:21.615Z,79
2019-04-01T05:17:21.795Z,86
2019-04-01T05:18:21.819Z,94
2019-04-01T05:19:21.816Z,99
2019-04-01T05:20:21.825Z,107
2019-04-01T05:21:21.834Z,115
2019-04-01T05:22:21.835Z,122
2019-04-01T05:23:21.871Z,129
2019-04-01T05:24:21.875Z,137
2019-04-01T05:25:21.936Z,146
2019-04-01T05:26:22.918Z,153
2019-04-01T05:27:22.005Z,161
2019-04-01T05:28:22.003Z,169
2019-04-01T05:29:22.000Z,177
2019-04-01T05:30:22.028Z,185
2019-04-01T05:31:22.044Z,193
2019-04-01T05:32:22.021Z,200
2019-04-01T05:33:22.027Z,209
2019-04-01T05:34:22.081Z,217
2019-04-01T05:35:22.142Z,225
2019-04-01T05:36:22.207Z,233
2019-04-01T05:37:22.288Z,239
2019-04-01T05:38:22.355Z,247
2019-04-01T05:39:22.414Z,254
2019-04-01T05:40:22.496Z,262
2019-04-01T05:41:22.576Z,269
2019-04-01T05:42:22.629Z,277
2019-04-01T05:43:22.675Z,284
2019-04-01T05:44:23.725Z,291
2019-04-01T05:45:22.839Z,298
2019-04-01T05:46:22.900Z,305
2019-04-01T05:47:22.950Z,311
2019-04-01T05:48:23.022Z,319
2019-04-01T05:49:23.172Z,326
2019-04-01T05:50:23.341Z,329
2019-04-01T05:51:23.505Z,338
2019-04-01T05:52:23.635Z,344
2019-04-01T05:53:23.766Z,351
2019-04-01T05:54:23.913Z,355
2019-04-01T05:55:24.062Z,361
2019-04-01T05:56:24.197Z,366
2019-04-01T05:57:24.379Z,373
2019-04-01T05:58:24.345Z,380
2019-04-01T05:59:24.552Z,386
2019-04-01T06:00:24.611Z,389
2019-04-01T06:01:24.732Z,395
2019-04-01T06:02:24.886Z,401
2019-04-01T06:03:25.027Z,405
2019-04-01T06:04:25.107Z,412
2019-04-01T06:05:25.172Z,416
2019-04-01T06:06:25.223Z,418
2019-04-01T06:07:25.255Z,425
2019-04-01T06:08:25.336Z,429
2019-04-01T06:09:25.396Z,435
2019-04-01T06:10:25.486Z,441
2019-04-01T06:11:25.549Z,443
2019-04-01T06:12:25.600Z,448
2019-04-01T06:13:25.660Z,452
2019-04-01T06:14:25.749Z,456
2019-04-01T06:15:25.786Z,461
2019-04-01T06:16:25.847Z,464
2019-04-01T06:17:25.952Z,468
2019-04-01T06:18:25.955Z,473
2019-04-01T06:19:26.044Z,477
2019-04-01T06:20:26.119Z,478
2019-04-01T06:21:26.159Z,485
2019-04-01T06:22:26.214Z,487
2019-04-01T06:23:26.324Z,490
2019-04-01T06:24:26.468Z,495
2019-04-01T06:25:26.580Z,498
2019-04-01T06:26:26.722Z,500
2019-04-01T06:27:27.224Z,509
2019-04-01T06:28:26.971Z,510
2019-04-01T06:29:27.117Z,510
2019-04-01T06:30:27.268Z,512
2019-04-01T06:31:27.403Z,518
2019-04-01T06:32:27.532Z,519
2019-04-01T06:33:27.671Z,520
2019-04-01T06:34:27.804Z,521
2019-04-01T06:35:27.953Z,525
2019-04-01T06:36:28.091Z,534
2019-04-01T06:37:28.209Z,538
2019-04-01T06:38:28.337Z,538
2019-04-01T06:39:28.468Z,538
2019-04-01T06:40:28.612Z,543
2019-04-01T06:41:28.719Z,544
2019-04-01T06:42:27.881Z,548
2019-04-01T06:43:28.927Z,548
2019-04-01T06:44:29.076Z,548
2019-04-01T06:45:29.574Z,550
2019-04-01T06:46:29.522Z,558
2019-04-01T06:47:29.516Z,560
2019-04-01T06:48:29.577Z,568
2019-04-01T06:49:29.662Z,568
2019-04-01T06:50:29.899Z,567
2019-04-01T06:51:29.967Z,570
2019-04-01T06:52:29.975Z,575
2019-04-01T06:53:29.835Z,575
2019-04-01T06:54:29.908Z,575
2019-04-01T06:55:29.962Z,576
2019-04-01T06:56:30.230Z,573
2019-04-01T06:57:30.223Z,575
2019-04-01T06:58:30.284Z,580
2019-04-01T06:59:30.352Z,584
2019-04-01T07:00:30.431Z,590
2019-04-01T07:01:29.502Z,592
2019-04-01T07:02:30.570Z,598
2019-04-01T07:03:30.629Z,598
2019-04-01T07:04:30.757Z,600
2019-04-01T07:05:30.763Z,601
2019-04-01T07:06:30.818Z,603
2019-04-01T07:07:30.858Z,600
2019-04-01T07:08:30.923Z,602
2019-04-01T07:09:30.981Z,601
2019-04-01T07:10:31.375Z,602
2019-04-01T07:11:31.123Z,601
2019-04-01T07:12:31.147Z,603
2019-04-01T07:13:31.324Z,606
2019-04-01T07:14:32.433Z,613
2019-04-01T07:15:31.469Z,614
2019-04-01T07:16:31.547Z,615
2019-04-01T07:17:32.653Z,617
2019-04-01T07:18:31.693Z,621
2019-04-01T07:19:31.837Z,624
2019-04-01T07:20:32.030Z,628
2019-04-01T07:21:32.088Z,631
2019-04-01T07:22:32.165Z,627
2019-04-01T07:23:32.243Z,626
2019-04-01T07:24:32.349Z,631
2019-04-01T07:25:34.164Z,631
2019-04-01T07:26:32.474Z,632
2019-04-01T07:27:32.593Z,633
2019-04-01T07:28:32.614Z,632
2019-04-01T07:29:32.795Z,630
2019-04-01T07:30:32.788Z,630
2019-04-01T07:31:33.792Z,629
2019-04-01T07:32:33.872Z,631
2019-04-01T07:33:32.956Z,628
2019-04-01T07:34:32.986Z,630
2019-04-01T07:35:33.006Z,630
2019-04-01T07:36:32.987Z,634
2019-04-01T07:37:32.984Z,637
2019-04-01T07:38:41.210Z,635
2019-04-01T07:39:33.195Z,643
2019-04-01T07:40:33.328Z,642
2019-04-01T07:41:33.461Z,643
2019-04-01T07:42:33.464Z,643
2019-04-01T07:43:33.591Z,645
2019-04-01T07:44:33.729Z,646
2019-04-01T07:45:33.872Z,647
2019-04-01T07:46:34.017Z,649
2019-04-01T07:47:34.145Z,650
2019-04-01T07:48:34.233Z,651
2019-04-01T07:49:34.357Z,653
2019-04-01T07:50:34.518Z,653
2019-04-01T07:51:38.077Z,652
2019-04-01T07:52:34.783Z,657
2019-04-01T07:53:34.896Z,660
2019-04-01T07:54:35.019Z,660
2019-04-01T07:55:35.186Z,665
2019-04-01T07:56:35.336Z,662
2019-04-01T07:57:35.443Z,656
2019-04-01T07:58:35.587Z,660
2019-04-01T07:59:35.686Z,659
2019-04-01T08:00:36.819Z,660
2019-04-01T08:01:35.820Z,660
2019-04-01T08:02:35.937Z,660
2019-04-01T08:03:36.044Z,661
2019-04-01T08:04:36.170Z,660
2019-04-01T08:05:36.332Z,661
2019-04-01T08:06:36.551Z,662
2019-04-01T08:07:36.588Z,662
2019-04-01T08:08:36.721Z,662
2019-04-01T08:09:37.860Z,663
2019-04-01T08:10:36.892Z,663
2019-04-01T08:11:37.062Z,662
2019-04-01T08:12:37.196Z,662
2019-04-01T08:13:37.332Z,662
2019-04-01T08:14:37.452Z,662
2019-04-01T08:15:37.565Z,662
2019-04-01T08:16:37.712Z,662
2019-04-01T08:17:37.860Z,661
2019-04-01T08:18:37.984Z,660
2019-04-01T08:19:38.114Z,661
2019-04-01T08:20:38.268Z,659
2019-04-01T08:21:38.388Z,659
2019-04-01T08:22:38.539Z,659
2019-04-01T08:23:38.724Z,657
2019-04-01T08:24:38.833Z,657
2019-04-01T08:25:38.960Z,657
2019-04-01T08:26:40.065Z,656
2019-04-01T08:27:39.100Z,658
2019-04-01T08:28:39.234Z,658
2019-04-01T08:29:39.356Z,655
2019-04-01T08:30:39.522Z,654
2019-04-01T08:31:39.638Z,655
2019-04-01T08:32:39.740Z,655
2019-04-01T08:33:39.882Z,653
2019-04-01T08:34:40.003Z,655
2019-04-01T08:35:40.155Z,655
2019-04-01T08:36:40.292Z,654
2019-04-01T08:37:40.807Z,654
2019-04-01T08:38:40.550Z,654
2019-04-01T08:39:40.681Z,652
2019-04-01T08:40:40.822Z,651
2019-04-01T08:41:40.982Z,651
2019-04-01T08:42:41.135Z,650
2019-04-01T08:43:42.215Z,651
2019-04-01T08:44:41.286Z,652
2019-04-01T08:45:41.362Z,652
2019-04-01T08:46:41.499Z,652
2019-04-01T08:47:41.630Z,650
2019-04-01T08:48:41.758Z,651
2019-04-01T08:49:41.880Z,653
2019-04-01T08:50:42.046Z,653
2019-04-01T08:51:42.151Z,654
2019-04-01T08:52:42.278Z,651
2019-04-01T08:53:42.410Z,652
2019-04-01T08:54:42.541Z,654
2019-04-01T08:55:43.637Z,653
2019-04-01T08:56:42.615Z,655
2019-04-01T08:57:42.727Z,654
2019-04-01T08:58:42.868Z,653
2019-04-01T08:59:43.005Z,654
2019-04-01T09:00:43.135Z,655
2019-04-01T09:01:43.259Z,651
2019-04-01T09:02:43.389Z,653
2019-04-01T09:03:43.527Z,655
2019-04-01T09:04:43.654Z,657
2019-04-01T09:05:43.796Z,654
2019-04-01T09:06:43.907Z,655
2019-04-01T09:07:44.027Z,653
2019-04-01T09:08:44.187Z,656
2019-04-01T09:09:44.319Z,653
2019-04-01T09:10:44.431Z,654
2019-04-01T09:11:44.561Z,655
2019-04-01T09:12:44.676Z,653
2019-04-01T09:13:44.809Z,654
2019-04-01T09:14:44.951Z,653
2019-04-01T09:15:45.045Z,652
2019-04-01T09:16:45.172Z,651
2019-04-01T09:17:46.296Z,653
2019-04-01T09:18:45.329Z,653
2019-04-01T09:19:45.432Z,653
2019-04-01T09:20:45.537Z,651
2019-04-01T09:21:45.645Z,650
2019-04-01T09:22:45.760Z,653
2019-04-01T09:23:45.883Z,653
2019-04-01T09:24:45.986Z,652
2019-04-01T09:25:46.093Z,652
2019-04-01T09:26:46.207Z,652
2019-04-01T09:27:46.322Z,652
2019-04-01T09:28:46.443Z,649
2019-04-01T09:29:46.528Z,648
2019-04-01T09:30:46.635Z,651
2019-04-01T09:31:46.730Z,648
2019-04-01T09:32:46.850Z,650
2019-04-01T09:33:46.965Z,652
2019-04-01T09:34:47.086Z,651
2019-04-01T09:35:47.173Z,648
2019-04-01T09:36:47.275Z,649
2019-04-01T09:37:47.349Z,650
2019-04-01T09:38:47.450Z,650
2019-04-01T09:39:47.576Z,649
2019-04-01T09:40:47.673Z,648
2019-04-01T09:41:47.769Z,650
2019-04-01T09:42:47.870Z,648
2019-04-01T09:43:47.967Z,648
2019-04-01T09:44:48.109Z,650
2019-04-01T09:45:48.228Z,649
2019-04-01T09:46:49.057Z,649
2019-04-01T09:47:48.421Z,649
2019-04-01T09:48:48.527Z,646
2019-04-01T09:49:48.644Z,649
2019-04-01T09:50:49.743Z,648
2019-04-01T09:51:49.301Z,651
2019-04-01T09:52:49.052Z,650
2019-04-01T09:53:49.141Z,648
2019-04-01T09:54:49.237Z,649
2019-04-01T09:55:49.362Z,648
2019-04-01T09:56:49.484Z,649
2019-04-01T09:57:49.634Z,647
2019-04-01T09:58:49.768Z,647
2019-04-01T09:59:49.890Z,648
2019-04-01T10:00:52.956Z,645
2019-04-01T10:01:50.069Z,648
2019-04-01T10:02:50.225Z,650
2019-04-01T10:03:50.316Z,651
2019-04-01T10:04:50.397Z,648
2019-04-01T10:05:50.515Z,647
2019-04-01T10:06:50.603Z,650
2019-04-01T10:07:50.805Z,650
2019-04-01T10:08:50.820Z,647
2019-04-01T10:09:50.920Z,649
2019-04-01T10:10:51.007Z,651
2019-04-01T10:11:51.098Z,649
2019-04-01T10:12:51.167Z,649
2019-04-01T10:13:51.322Z,653
2019-04-01T10:14:51.386Z,652
2019-04-01T10:15:51.502Z,651
2019-04-01T10:16:51.576Z,652
2019-04-01T10:17:51.628Z,653
2019-04-01T10:18:51.690Z,653
2019-04-01T10:19:51.736Z,656
2019-04-01T10:20:52.777Z,655
2019-04-01T10:21:51.896Z,651
2019-04-01T10:22:51.905Z,653
2019-04-01T10:23:52.002Z,652
2019-04-01T10:24:52.071Z,651
2019-04-01T10:25:52.062Z,651
2019-04-01T10:26:52.090Z,651
2019-04-01T10:27:52.094Z,654
2019-04-01T10:28:52.130Z,654
2019-04-01T10:29:52.162Z,656
2019-04-01T10:30:52.196Z,651
2019-04-01T10:31:52.216Z,651
2019-04-01T10:32:52.222Z,652
2019-04-01T10:33:53.233Z,651
2019-04-01T10:34:52.356Z,654
2019-04-01T10:35:52.401Z,654
2019-04-01T10:36:52.489Z,652
2019-04-01T10:37:52.493Z,654
2019-04-01T10:38:52.519Z,655
2019-04-01T10:39:52.552Z,655
2019-04-01T10:40:53.570Z,656
2019-04-01T10:41:52.684Z,654
2019-04-01T10:42:52.689Z,655
2019-04-01T10:43:52.726Z,657
2019-04-01T10:44:52.764Z,657
2019-04-01T10:45:52.806Z,658
2019-04-01T10:46:52.880Z,658
2019-04-01T10:47:52.946Z,659
2019-04-01T10:48:53.022Z,663
2019-04-01T10:49:52.995Z,658
2019-04-01T10:50:53.106Z,662
2019-04-01T10:51:53.105Z,663
2019-04-01T10:52:53.187Z,665
2019-04-01T10:53:53.159Z,665
2019-04-01T10:54:53.252Z,668
2019-04-01T10:55:53.303Z,669
2019-04-01T10:56:53.341Z,672
2019-04-01T10:57:53.998Z,672
2019-04-01T10:58:53.437Z,676
2019-04-01T10:59:53.517Z,681
2019-04-01T11:00:53.477Z,682
2019-04-01T11:01:53.533Z,681
2019-04-01T11:02:53.622Z,679
2019-04-01T11:03:53.615Z,680
2019-04-01T11:04:53.643Z,681
2019-04-01T11:05:53.760Z,679
2019-04-01T11:06:53.765Z,680
2019-04-01T11:07:53.862Z,681
2019-04-01T11:08:53.789Z,683
2019-04-01T11:09:53.832Z,683
2019-04-01T11:10:53.937Z,681
2019-04-01T11:11:53.894Z,682
2019-04-01T11:12:54.202Z,679
2019-04-01T11:13:54.258Z,680
2019-04-01T11:14:53.957Z,679
2019-04-01T11:15:53.986Z,680
2019-04-01T11:16:54.014Z,681
2019-04-01T11:17:55.020Z,678
2019-04-01T11:18:57.739Z,680
2019-04-01T11:19:54.250Z,679
2019-04-01T11:20:56.767Z,679
2019-04-01T11:21:54.276Z,681
2019-04-01T11:22:54.319Z,681
2019-04-01T11:23:55.336Z,682
2019-04-01T11:24:54.460Z,686
2019-04-01T11:25:54.498Z,686
2019-04-01T11:26:54.638Z,676
2019-04-01T11:27:54.754Z,655
2019-04-01T11:28:54.757Z,570
2019-04-01T11:29:54.809Z,558
2019-04-01T11:30:54.969Z,603
2019-04-01T11:31:55.088Z,621
2019-04-01T11:32:55.295Z,623
2019-04-01T11:33:55.312Z,624
2019-04-01T11:34:56.181Z,626
2019-04-01T11:35:55.571Z,625
2019-04-01T11:36:55.777Z,626
2019-04-01T11:37:55.774Z,628
2019-04-01T11:38:55.815Z,631
2019-04-01T11:39:55.935Z,635
2019-04-01T11:40:55.994Z,639
2019-04-01T11:41:55.975Z,641
2019-04-01T11:42:56.118Z,639
2019-04-01T11:43:57.238Z,637
2019-04-01T11:44:56.285Z,639
2019-04-01T11:45:57.387Z,639
2019-04-01T11:46:56.419Z,641
2019-04-01T11:47:56.589Z,642
2019-04-01T11:48:56.755Z,643
2019-04-01T11:49:57.111Z,645
2019-04-01T11:50:56.898Z,645
2019-04-01T11:51:56.912Z,645
2019-04-01T11:52:57.079Z,645
2019-04-01T11:53:57.190Z,644
2019-04-01T11:54:57.326Z,643
2019-04-01T11:55:58.491Z,642
2019-04-01T11:56:57.518Z,645
2019-04-01T11:57:57.545Z,644
2019-04-01T11:58:57.549Z,646
2019-04-01T11:59:57.594Z,649
2019-04-01T12:00:57.619Z,650
2019-04-01T12:01:57.748Z,653
2019-04-01T12:02:57.744Z,658
2019-04-01T12:03:57.922Z,658
2019-04-01T12:04:57.912Z,660
2019-04-01T12:05:58.059Z,666
2019-04-01T12:07:01.658Z,668
2019-04-01T12:07:58.267Z,672
2019-04-01T12:08:58.997Z,677
2019-04-01T12:09:58.478Z,682
2019-04-01T12:10:59.468Z,689
2019-04-01T12:11:58.576Z,688
2019-04-01T12:12:59.870Z,686
2019-04-01T12:13:58.749Z,689
2019-04-01T12:14:58.893Z,690
2019-04-01T12:15:58.952Z,689
2019-04-01T12:16:59.979Z,687
2019-04-01T12:17:59.052Z,686
2019-04-01T12:18:59.109Z,688
2019-04-01T12:19:59.257Z,693
2019-04-01T12:20:59.314Z,694
2019-04-01T12:21:59.439Z,699
2019-04-01T12:22:59.591Z,705
2019-04-01T12:23:59.637Z,711
2019-04-01T12:24:59.775Z,714
2019-04-01T12:26:13.846Z,722
2019-04-01T12:27:00.932Z,730
2019-04-01T12:28:00.094Z,732
2019-04-01T12:29:00.171Z,731
2019-04-01T12:30:00.398Z,727
2019-04-01T12:31:00.376Z,718
2019-04-01T12:32:00.518Z,720
2019-04-01T12:33:00.678Z,720
2019-04-01T12:34:00.655Z,727
2019-04-01T12:35:00.647Z,736
2019-04-01T12:36:00.692Z,739
2019-04-01T12:37:00.796Z,740
2019-04-01T12:38:00.890Z,749
2019-04-01T12:39:01.018Z,753
2019-04-01T12:40:01.113Z,763
2019-04-01T12:41:01.265Z,770
2019-04-01T12:42:01.411Z,775
2019-04-01T12:43:01.557Z,778
2019-04-01T12:44:01.740Z,781
2019-04-01T12:45:01.907Z,781
2019-04-01T12:46:02.062Z,786
2019-04-01T12:47:03.210Z,786
2019-04-01T12:48:02.270Z,789
2019-04-01T12:49:02.394Z,788
2019-04-01T12:50:02.559Z,789
2019-04-01T12:51:02.705Z,787
2019-04-01T12:52:02.849Z,789
2019-04-01T12:53:02.928Z,793
2019-04-01T12:54:03.092Z,787
2019-04-01T12:55:03.089Z,791
2019-04-01T12:56:03.231Z,794
2019-04-01T12:57:03.407Z,796
2019-04-01T12:58:03.571Z,796
2019-04-01T12:59:03.574Z,794
2019-04-01T13:00:03.717Z,785
2019-04-01T13:01:04.703Z,804
2019-04-01T13:02:04.869Z,808
2019-04-01T13:03:03.877Z,806
2019-04-01T13:04:04.361Z,812
2019-04-01T13:05:03.910Z,817
2019-04-01T13:06:04.051Z,823
2019-04-01T13:07:05.103Z,829
2019-04-01T13:08:04.301Z,835
2019-04-01T13:09:04.483Z,827
2019-04-01T13:10:04.448Z,834
2019-04-01T13:11:04.482Z,838
2019-04-01T13:12:04.487Z,846
2019-04-01T13:13:04.668Z,851
2019-04-01T13:14:05.715Z,854
2019-04-01T13:15:05.812Z,857
2019-04-01T13:16:08.843Z,864
2019-04-01T13:17:05.013Z,865
2019-04-01T13:18:04.977Z,869
2019-04-01T13:19:05.017Z,877
2019-04-01T13:20:05.019Z,879
2019-04-01T13:21:05.148Z,880
2019-04-01T13:22:05.316Z,878
2019-04-01T13:23:05.260Z,880
2019-04-01T13:24:05.437Z,880
2019-04-01T13:25:05.884Z,876
2019-04-01T13:26:05.615Z,879
2019-04-01T13:27:08.930Z,879
2019-04-01T13:28:05.761Z,876
2019-04-01T13:29:05.925Z,879
2019-04-01T13:30:06.101Z,882
2019-04-01T13:31:06.216Z,884
2019-04-01T13:32:06.345Z,891
2019-04-01T13:33:06.447Z,897
2019-04-01T13:34:06.628Z,902
2019-04-01T13:35:06.637Z,905
2019-04-01T13:36:07.869Z,911
2019-04-01T13:37:06.906Z,912
2019-04-01T13:38:10.568Z,917
2019-04-01T13:39:34.040Z,923
2019-04-01T13:40:07.080Z,924
2019-04-01T13:41:07.188Z,934
2019-04-01T13:42:08.354Z,945
2019-04-01T13:43:07.351Z,954
2019-04-01T13:44:09.154Z,967
2019-04-01T13:45:07.553Z,975
2019-04-01T13:46:07.568Z,979
2019-04-01T13:47:08.719Z,981
2019-04-01T13:48:07.790Z,987
2019-04-01T13:49:07.928Z,995
2019-04-01T13:50:08.098Z,994
2019-04-01T13:51:09.258Z,990
2019-04-01T13:52:08.364Z,989
2019-04-01T13:53:08.384Z,985
2019-04-01T13:54:09.455Z,983
2019-04-01T13:55:09.843Z,975
2019-04-01T13:56:10.302Z,971
2019-04-01T13:57:08.867Z,985
2019-04-01T13:58:10.468Z,990
2019-04-01T13:59:12.082Z,999
2019-04-01T14:00:10.086Z,1011
2019-04-01T14:01:09.215Z,1020
2019-04-01T14:02:09.373Z,1029
2019-04-01T14:03:11.149Z,1035
2019-04-01T14:04:09.520Z,1045
2019-04-01T14:05:09.956Z,1054
2019-04-01T14:06:09.691Z,1053
2019-04-01T14:07:09.839Z,1054
2019-04-01T14:08:09.969Z,1065